Fort Wayne International Airport

Airport
ICAO code: 
KFWA
Summary
ICAO Region: 
NAM
Territory: 
Location: 
Fort Wayne, Indiana,
Elevation: 
814 ft
Coordinates: 
Aerial View: 
40° 58' 41.999" N, 85° 11' 42" W
Airport WX: 
Cumulonimbus
Metar
Observation
KFWA 020854Z 22016KT 10SM SCT170 BKN240 07/06 A2972 RMK AO2 PRESFR SLP068 T00720056 58028 $
Station
Fort Wayne, Fort Wayne International Airport
Date/Time
2021-12-02 08:54:00
Wind direction
220°
Wind speed
16 kts
Lowest cloud amount
scattered clouds
Temperature
7.2°C
Dew point
5.6°C
Humidity
89%
Weather condition
n/a

Description

International Airport located 13 km southwest of the central business district of Fort Wayne, in Allen County, Indiana.

Climatology

Humid continental climate (Köppen climate classification Dfa) - characterized by four seasons: cold, windy, snowy winters, mild springs, hot, humid summers, and crisp and relatively short autumns. Precipitation reaches its lowest in January and February and peaks in summer and latter half of spring.

Runways

Designator Length Width Surface Rops
9/27 1220 23 PEM Yes/Yes
14/32 2439 46 PEM Yes/Yes
5/23 3658 46 PEM Yes/Yes
Airport map: 
Aerial View: 

SKYbrary Partners:

Safety knowledge contributed by: